AAL1968 KDFW-KDCA
Flight info
| Callsign | AAL1968 |
|---|---|
| Flight time | N/A |
| Altitude | 35000 |
| Route | TRYTN4 LOOSE Q34 WAKOL/N0436F370 Q34 SITTR TRUPS5 |
| Aircraft | A320/M-SDE3FGHIRWY/LB1 |
Departure
| Time | N/A |
|---|---|
| Airport | Dallas Fort Worth International Airport (KDFW) |
Arrival
| Time | 2026-05-03 21:18 |
|---|---|
| Airport | Ronald Reagan Washington National Airport (KDCA) |
| Time | Latitude | Longitude | Altitude | Speed | Heading |
|---|---|---|---|---|---|
| 2026-05-03 20:15 | 36.47839 | -85.61721 | 37170 ft | 498 kts | 65° |
| 2026-05-03 20:15 | 36.50344 | -85.53704 | 37166 ft | 498 kts | 66° |
| 2026-05-03 20:16 | 36.52856 | -85.45681 | 37164 ft | 498 kts | 65° |
| 2026-05-03 20:16 | 36.55359 | -85.37649 | 37166 ft | 499 kts | 66° |
| 2026-05-03 20:17 | 36.57849 | -85.29629 | 37165 ft | 500 kts | 66° |
| 2026-05-03 20:17 | 36.60358 | -85.21561 | 37166 ft | 500 kts | 66° |
| 2026-05-03 20:18 | 36.62858 | -85.13487 | 37169 ft | 500 kts | 66° |
| 2026-05-03 20:18 | 36.65349 | -85.05405 | 37182 ft | 500 kts | 66° |
| 2026-05-03 20:19 | 36.67836 | -84.97304 | 37172 ft | 501 kts | 66° |
| 2026-05-03 20:19 | 36.70320 | -84.89188 | 37172 ft | 502 kts | 66° |
| 2026-05-03 20:20 | 36.72798 | -84.81060 | 37172 ft | 501 kts | 66° |
| 2026-05-03 20:20 | 36.75279 | -84.72932 | 37173 ft | 502 kts | 66° |
| 2026-05-03 20:21 | 36.77753 | -84.64796 | 37171 ft | 502 kts | 66° |
| 2026-05-03 20:21 | 36.80229 | -84.56617 | 37168 ft | 504 kts | 66° |
| 2026-05-03 20:22 | 36.82703 | -84.48431 | 37147 ft | 504 kts | 66° |
| 2026-05-03 20:22 | 36.85172 | -84.40228 | 37147 ft | 505 kts | 66° |
| 2026-05-03 20:23 | 36.87634 | -84.32024 | 37138 ft | 504 kts | 66° |
| 2026-05-03 20:23 | 36.90091 | -84.23806 | 37140 ft | 505 kts | 66° |
| 2026-05-03 20:24 | 36.92533 | -84.15631 | 37141 ft | 506 kts | 66° |
| 2026-05-03 20:24 | 36.94993 | -84.07389 | 37136 ft | 506 kts | 66° |
| 2026-05-03 20:25 | 36.97442 | -83.99135 | 37138 ft | 506 kts | 66° |
| 2026-05-03 20:25 | 36.99882 | -83.90882 | 37145 ft | 506 kts | 66° |
| 2026-05-03 20:26 | 37.02326 | -83.82600 | 37142 ft | 508 kts | 66° |
| 2026-05-03 20:26 | 37.04765 | -83.74301 | 37145 ft | 508 kts | 66° |
| 2026-05-03 20:27 | 37.07203 | -83.65987 | 37169 ft | 509 kts | 66° |
| 2026-05-03 20:27 | 37.09630 | -83.57677 | 37145 ft | 508 kts | 66° |
| 2026-05-03 20:28 | 37.12052 | -83.49348 | 37139 ft | 509 kts | 66° |
| 2026-05-03 20:28 | 37.14470 | -83.41005 | 37136 ft | 510 kts | 66° |
| 2026-05-03 20:29 | 37.16895 | -83.32653 | 37136 ft | 510 kts | 66° |
| 2026-05-03 20:29 | 37.19323 | -83.24287 | 37133 ft | 510 kts | 66° |
| 2026-05-03 20:30 | 37.21730 | -83.15915 | 37136 ft | 510 kts | 67° |
| 2026-05-03 20:30 | 37.24129 | -83.07515 | 37131 ft | 512 kts | 67° |
| 2026-05-03 20:31 | 37.26532 | -82.99109 | 37128 ft | 512 kts | 67° |
| 2026-05-03 20:31 | 37.28919 | -82.90753 | 37129 ft | 511 kts | 66° |
| 2026-05-03 20:32 | 37.31310 | -82.82338 | 37122 ft | 512 kts | 66° |
| 2026-05-03 20:32 | 37.33697 | -82.73917 | 37120 ft | 513 kts | 67° |
| 2026-05-03 20:33 | 37.36088 | -82.65454 | 37119 ft | 514 kts | 67° |
| 2026-05-03 20:33 | 37.38475 | -82.56986 | 37120 ft | 514 kts | 67° |
| 2026-05-03 20:34 | 37.40856 | -82.48501 | 37122 ft | 514 kts | 67° |
| 2026-05-03 20:34 | 37.43231 | -82.40021 | 37127 ft | 514 kts | 67° |
| 2026-05-03 20:35 | 37.45604 | -82.31514 | 37122 ft | 517 kts | 67° |
| 2026-05-03 20:35 | 37.47980 | -82.22964 | 37112 ft | 517 kts | 67° |
| 2026-05-03 20:36 | 37.50338 | -82.14418 | 37128 ft | 517 kts | 67° |
| 2026-05-03 20:36 | 37.52692 | -82.05877 | 37126 ft | 516 kts | 67° |
| 2026-05-03 20:37 | 37.55039 | -81.97386 | 37120 ft | 516 kts | 67° |
| 2026-05-03 20:37 | 37.57387 | -81.88838 | 37125 ft | 516 kts | 67° |
| 2026-05-03 20:38 | 37.59732 | -81.80276 | 37126 ft | 516 kts | 67° |
| 2026-05-03 20:38 | 37.62068 | -81.71717 | 37125 ft | 516 kts | 67° |
| 2026-05-03 20:39 | 37.64393 | -81.63148 | 37127 ft | 517 kts | 67° |
| 2026-05-03 20:39 | 37.66717 | -81.54547 | 37111 ft | 518 kts | 67° |
| 2026-05-03 20:40 | 37.69049 | -81.45929 | 37196 ft | 519 kts | 67° |
| 2026-05-03 20:40 | 37.71381 | -81.37304 | 37120 ft | 519 kts | 68° |
| 2026-05-03 20:41 | 37.73685 | -81.28661 | 37120 ft | 519 kts | 68° |
| 2026-05-03 20:41 | 37.75995 | -81.20003 | 37122 ft | 521 kts | 68° |
| 2026-05-03 20:42 | 37.78382 | -81.11370 | 37122 ft | 518 kts | 62° |
| 2026-05-03 20:42 | 37.81316 | -81.03058 | 37118 ft | 517 kts | 61° |
| 2026-05-03 20:43 | 37.84258 | -80.94757 | 37133 ft | 517 kts | 61° |
| 2026-05-03 20:43 | 37.87177 | -80.86502 | 37122 ft | 518 kts | 61° |
| 2026-05-03 20:44 | 37.90115 | -80.78175 | 37136 ft | 518 kts | 61° |
| 2026-05-03 20:44 | 37.93082 | -80.69853 | 37133 ft | 518 kts | 61° |
| 2026-05-03 20:45 | 37.96046 | -80.61538 | 37120 ft | 518 kts | 61° |
| 2026-05-03 20:45 | 37.99000 | -80.53206 | 37139 ft | 519 kts | 61° |
| 2026-05-03 20:46 | 38.01941 | -80.44846 | 37118 ft | 520 kts | 61° |
| 2026-05-03 20:46 | 38.04880 | -80.36460 | 37121 ft | 520 kts | 61° |
| 2026-05-03 20:47 | 38.07817 | -80.28082 | 37126 ft | 520 kts | 61° |
| 2026-05-03 20:47 | 38.10761 | -80.19707 | 37121 ft | 520 kts | 61° |
| 2026-05-03 20:48 | 38.13238 | -80.12756 | 37109 ft | 519 kts | 61° |
| 2026-05-03 20:48 | 38.16221 | -80.04397 | 37126 ft | 520 kts | 61° |
| 2026-05-03 20:49 | 38.19668 | -79.94658 | 37102 ft | 520 kts | 61° |
| 2026-05-03 20:49 | 38.22622 | -79.86260 | 37117 ft | 520 kts | 61° |
| 2026-05-03 20:50 | 38.25086 | -79.79246 | 37108 ft | 518 kts | 61° |
| 2026-05-03 20:50 | 38.28015 | -79.70873 | 37099 ft | 519 kts | 61° |
| 2026-05-03 20:51 | 38.30916 | -79.62462 | 37097 ft | 519 kts | 62° |
| 2026-05-03 20:51 | 38.33785 | -79.54080 | 36896 ft | 522 kts | 62° |
| 2026-05-03 20:51 | 38.34025 | -79.53380 | 36747 ft | 524 kts | 62° |
| 2026-05-03 20:52 | 38.34928 | -79.50745 | 36067 ft | 529 kts | 61° |
| 2026-05-03 20:52 | 38.36370 | -79.46528 | 35561 ft | 523 kts | 60° |
| 2026-05-03 20:52 | 38.37814 | -79.42298 | 35040 ft | 518 kts | 60° |
| 2026-05-03 20:52 | 38.39253 | -79.38086 | 34337 ft | 519 kts | 60° |
| 2026-05-03 20:53 | 38.40695 | -79.33855 | 33456 ft | 522 kts | 60° |
| 2026-05-03 20:53 | 38.42087 | -79.29571 | 32625 ft | 526 kts | 65° |
| 2026-05-03 20:53 | 38.43054 | -79.25046 | 31743 ft | 531 kts | 73° |
| 2026-05-03 20:53 | 38.43871 | -79.20437 | 30696 ft | 535 kts | 73° |
| 2026-05-03 20:54 | 38.44679 | -79.15824 | 29936 ft | 531 kts | 73° |
| 2026-05-03 20:54 | 38.46223 | -79.06877 | 28602 ft | 497 kts | 73° |
| 2026-05-03 20:54 | 38.46956 | -79.02617 | 27923 ft | 486 kts | 72° |
| 2026-05-03 20:55 | 38.47680 | -78.98439 | 27551 ft | 477 kts | 72° |
| 2026-05-03 20:55 | 38.48384 | -78.94363 | 27416 ft | 463 kts | 72° |
| 2026-05-03 20:55 | 38.48631 | -78.92939 | 27359 ft | 459 kts | 72° |
| 2026-05-03 20:56 | 38.48891 | -78.91435 | 27239 ft | 456 kts | 72° |
| 2026-05-03 20:56 | 38.49568 | -78.87532 | 26640 ft | 446 kts | 72° |
| 2026-05-03 20:56 | 38.50244 | -78.83662 | 25466 ft | 450 kts | 72° |
| 2026-05-03 20:56 | 38.50895 | -78.79761 | 24905 ft | 444 kts | 72° |
| 2026-05-03 20:57 | 38.51494 | -78.75970 | 24614 ft | 429 kts | 72° |
| 2026-05-03 20:57 | 38.52058 | -78.72317 | 23990 ft | 421 kts | 72° |
| 2026-05-03 20:57 | 38.52622 | -78.68634 | 23310 ft | 414 kts | 72° |
| 2026-05-03 20:57 | 38.53162 | -78.65110 | 22969 ft | 409 kts | 72° |
| 2026-05-03 20:58 | 38.53722 | -78.61526 | 22730 ft | 405 kts | 72° |
| 2026-05-03 20:58 | 38.54277 | -78.58048 | 22464 ft | 405 kts | 72° |
| 2026-05-03 20:58 | 38.54843 | -78.54530 | 22187 ft | 403 kts | 72° |
| 2026-05-03 20:58 | 38.55404 | -78.51025 | 21917 ft | 401 kts | 72° |
| 2026-05-03 20:59 | 38.55960 | -78.47538 | 21654 ft | 400 kts | 73° |
| 2026-05-03 20:59 | 38.56512 | -78.44065 | 21387 ft | 399 kts | 73° |
| 2026-05-03 20:59 | 38.57062 | -78.40598 | 21131 ft | 397 kts | 73° |
| 2026-05-03 20:59 | 38.57619 | -78.37149 | 21028 ft | 395 kts | 72° |
| 2026-05-03 21:00 | 38.58204 | -78.33723 | 20758 ft | 396 kts | 72° |
| 2026-05-03 21:00 | 38.58611 | -78.31403 | 20438 ft | 396 kts | 72° |
| 2026-05-03 21:00 | 38.59413 | -78.26878 | 19874 ft | 392 kts | 72° |
| 2026-05-03 21:00 | 38.60160 | -78.23552 | 19454 ft | 386 kts | 63° |
| 2026-05-03 21:01 | 38.61178 | -78.20405 | 19040 ft | 382 kts | 62° |
| 2026-05-03 21:01 | 38.62202 | -78.17274 | 18640 ft | 381 kts | 62° |
| 2026-05-03 21:01 | 38.63212 | -78.14158 | 18266 ft | 379 kts | 63° |
| 2026-05-03 21:01 | 38.64213 | -78.11052 | 17847 ft | 376 kts | 63° |
| 2026-05-03 21:02 | 38.65207 | -78.07971 | 17457 ft | 374 kts | 63° |
| 2026-05-03 21:02 | 38.66199 | -78.04907 | 17081 ft | 371 kts | 63° |
| 2026-05-03 21:02 | 38.67177 | -78.01870 | 16698 ft | 368 kts | 63° |
| 2026-05-03 21:02 | 38.68146 | -77.98850 | 16333 ft | 366 kts | 63° |
| 2026-05-03 21:03 | 38.69108 | -77.95848 | 15968 ft | 363 kts | 63° |
| 2026-05-03 21:03 | 38.70063 | -77.92863 | 15626 ft | 361 kts | 63° |
| 2026-05-03 21:03 | 38.71007 | -77.89905 | 15279 ft | 358 kts | 63° |
| 2026-05-03 21:03 | 38.71935 | -77.86986 | 15108 ft | 351 kts | 63° |
| 2026-05-03 21:04 | 38.72870 | -77.84122 | 14840 ft | 344 kts | 59° |
| 2026-05-03 21:04 | 38.74118 | -77.81576 | 14538 ft | 333 kts | 45° |
| 2026-05-03 21:04 | 38.75639 | -77.79373 | 14204 ft | 329 kts | 42° |
| 2026-05-03 21:04 | 38.77151 | -77.77207 | 13640 ft | 324 kts | 42° |
| 2026-05-03 21:05 | 38.78644 | -77.75056 | 12975 ft | 321 kts | 43° |
| 2026-05-03 21:05 | 38.80118 | -77.72927 | 12341 ft | 317 kts | 43° |
| 2026-05-03 21:05 | 38.81564 | -77.70806 | 11903 ft | 316 kts | 47° |
| 2026-05-03 21:05 | 38.82713 | -77.68398 | 11597 ft | 318 kts | 60° |
| 2026-05-03 21:06 | 38.83641 | -77.65832 | 11255 ft | 316 kts | 60° |
| 2026-05-03 21:06 | 38.84552 | -77.63318 | 10915 ft | 313 kts | 60° |
| 2026-05-03 21:06 | 38.85467 | -77.60798 | 10581 ft | 311 kts | 60° |
| 2026-05-03 21:06 | 38.86374 | -77.58296 | 10263 ft | 308 kts | 60° |
| 2026-05-03 21:07 | 38.87273 | -77.55818 | 9933 ft | 305 kts | 60° |
| 2026-05-03 21:07 | 38.88166 | -77.53359 | 9554 ft | 303 kts | 60° |
| 2026-05-03 21:07 | 38.89052 | -77.50919 | 9172 ft | 300 kts | 60° |
| 2026-05-03 21:07 | 38.89901 | -77.48476 | 8788 ft | 300 kts | 67° |
| 2026-05-03 21:08 | 38.90305 | -77.45848 | 8410 ft | 303 kts | 85° |
| 2026-05-03 21:08 | 38.90089 | -77.43164 | 8030 ft | 304 kts | 103° |
| 2026-05-03 21:08 | 38.89282 | -77.40667 | 7646 ft | 303 kts | 119° |
| 2026-05-03 21:08 | 38.88256 | -77.38320 | 7272 ft | 301 kts | 119° |
| 2026-05-03 21:09 | 38.87235 | -77.35989 | 6898 ft | 298 kts | 119° |
| 2026-05-03 21:09 | 38.86223 | -77.33676 | 6494 ft | 296 kts | 119° |
| 2026-05-03 21:09 | 38.85224 | -77.31387 | 6138 ft | 293 kts | 119° |
| 2026-05-03 21:09 | 38.84229 | -77.29122 | 5826 ft | 289 kts | 120° |
| 2026-05-03 21:10 | 38.83234 | -77.26896 | 5557 ft | 287 kts | 120° |
| 2026-05-03 21:10 | 38.82231 | -77.24676 | 5241 ft | 287 kts | 120° |
| 2026-05-03 21:10 | 38.81233 | -77.22472 | 4938 ft | 284 kts | 120° |
| 2026-05-03 21:10 | 38.80243 | -77.20285 | 4625 ft | 283 kts | 120° |
| 2026-05-03 21:11 | 38.79261 | -77.18108 | 4310 ft | 281 kts | 120° |
| 2026-05-03 21:11 | 38.78286 | -77.15944 | 3998 ft | 279 kts | 120° |
| 2026-05-03 21:11 | 38.77200 | -77.13888 | 3679 ft | 279 kts | 133° |
| 2026-05-03 21:11 | 38.75707 | -77.12319 | 3380 ft | 277 kts | 152° |
| 2026-05-03 21:12 | 38.73949 | -77.11398 | 3070 ft | 270 kts | 170° |
| 2026-05-03 21:12 | 38.72111 | -77.11136 | 2764 ft | 263 kts | 181° |
| 2026-05-03 21:12 | 38.70300 | -77.11040 | 2524 ft | 255 kts | 181° |
| 2026-05-03 21:12 | 38.68583 | -77.10930 | 2483 ft | 239 kts | 181° |
| 2026-05-03 21:13 | 38.66994 | -77.10504 | 2539 ft | 236 kts | 155° |
| 2026-05-03 21:13 | 38.65795 | -77.09107 | 2537 ft | 236 kts | 120° |
| 2026-05-03 21:13 | 38.65325 | -77.07124 | 2543 ft | 235 kts | 95° |
| 2026-05-03 21:13 | 38.65215 | -77.05021 | 2543 ft | 238 kts | 88° |
| 2026-05-03 21:14 | 38.65653 | -77.03053 | 2541 ft | 228 kts | 47° |
| 2026-05-03 21:14 | 38.66905 | -77.01993 | 2544 ft | 214 kts | 5° |
| 2026-05-03 21:14 | 38.68353 | -77.02042 | 2495 ft | 203 kts | 349° |
| 2026-05-03 21:14 | 38.69718 | -77.02209 | 2490 ft | 192 kts | 350° |
| 2026-05-03 21:15 | 38.71040 | -77.02352 | 2479 ft | 190 kts | 351° |
| 2026-05-03 21:15 | 38.72354 | -77.02487 | 2317 ft | 187 kts | 351° |
| 2026-05-03 21:15 | 38.73627 | -77.02614 | 2132 ft | 179 kts | 351° |
| 2026-05-03 21:15 | 38.74833 | -77.02735 | 1873 ft | 168 kts | 351° |
| 2026-05-03 21:16 | 38.75953 | -77.02846 | 1650 ft | 156 kts | 351° |
| 2026-05-03 21:16 | 38.76994 | -77.02950 | 1451 ft | 142 kts | 349° |
| 2026-05-03 21:16 | 38.77951 | -77.03046 | 1264 ft | 136 kts | 349° |
| 2026-05-03 21:16 | 38.78893 | -77.03142 | 1081 ft | 135 kts | 349° |
| 2026-05-03 21:17 | 38.79822 | -77.03236 | 896 ft | 134 kts | 350° |
| 2026-05-03 21:17 | 38.80444 | -77.03300 | 778 ft | 133 kts | 348° |
| 2026-05-03 21:17 | 38.81664 | -77.03434 | 503 ft | 135 kts | 347° |
| 2026-05-03 21:17 | 38.82614 | -77.03532 | 353 ft | 139 kts | 348° |
| 2026-05-03 21:18 | 38.83583 | -77.03614 | 160 ft | 140 kts | 348° |
| 2026-05-03 21:18 | 38.84540 | -77.03711 | 27 ft | 130 kts | 347° |
| 2026-05-03 21:18 | 38.85198 | -77.03781 | 24 ft | 57 kts | 354° |
| 2026-05-03 21:18 | 38.85434 | -77.03807 | 25 ft | 19 kts | 355° |
| 2026-05-03 21:19 | 38.85510 | -77.03861 | 25 ft | 11 kts | 309° |
| 2026-05-03 21:19 | 38.85558 | -77.03941 | 26 ft | 9 kts | 295° |
| 2026-05-03 21:19 | 38.85563 | -77.04012 | 24 ft | 9 kts | 287° |
| 2026-05-03 21:19 | 38.85578 | -77.04076 | 24 ft | 4 kts | 288° |
| 2026-05-03 21:20 | 38.85590 | -77.04114 | 26 ft | 4 kts | 293° |
| 2026-05-03 21:20 | 38.85597 | -77.04134 | 24 ft | 2 kts | 295° |
| 2026-05-03 21:20 | 38.85600 | -77.04143 | 24 ft | 0 kts | 294° |